Time;durP1;ratioP1;P1;durP2;ratioP2;P2;SDS_P1;SDS_P2;PMS_P1;PMS_P2;Temp;Humidity;BMP_temperature;BMP_pressure;BME280_temperature;BME280_humidity;BME280_pressure;Samples;Min_cycle;Max_cycle;Signal;HPM_P1;HPM_P2
2022/02/20 00:00:44;;;;;;;3.65;2.63;;;;;;;;;;5032068;28;20156;-94
2022/02/20 00:03:10;;;;;;;4.40;2.30;;;;;;;;;;5036155;28;20021;-93
2022/02/20 00:05:36;;;;;;;7.60;3.30;;;;;;;;;;5031257;28;20018;-93
2022/02/20 00:08:03;;;;;;;10.52;4.18;;;;;;;;;;5040844;28;20112;-93
2022/02/20 00:10:29;;;;;;;5.85;2.53;;;;;;;;;;5032294;28;20048;-94
2022/02/20 00:12:57;;;;;;;5.28;2.90;;;;;;;;;;5034625;28;20486;-93
2022/02/20 00:15:23;;;;;;;2.55;2.05;;;;;;;;;;5035562;28;20052;-94
2022/02/20 00:17:50;;;;;;;3.67;1.65;;;;;;;;;;5032706;28;20036;-94
2022/02/20 00:20:17;;;;;;;;;;;;;;;;;;5035876;28;20045;-94
2022/02/20 00:22:43;;;;;;;5.25;2.83;;;;;;;;;;5035795;28;19911;-94
2022/02/20 00:25:10;;;;;;;2.85;1.55;;;;;;;;;;5035057;28;20060;-95
2022/02/20 00:27:36;;;;;;;12.23;3.17;;;;;;;;;;5035167;28;20029;-94
2022/02/20 00:30:02;;;;;;;10.23;2.95;;;;;;;;;;5035340;28;20021;-94
2022/02/20 00:32:28;;;;;;;6.57;3.78;;;;;;;;;;5035623;28;20083;-93
2022/02/20 00:34:54;;;;;;;4.07;3.58;;;;;;;;;;5019329;28;20029;-95
2022/02/20 00:37:20;;;;;;;4.65;3.65;;;;;;;;;;5035705;28;20470;-94
2022/02/20 00:39:46;;;;;;;4.97;2.25;;;;;;;;;;5034550;28;20021;-93
2022/02/20 00:42:12;;;;;;;8.07;2.67;;;;;;;;;;5025231;28;20026;-95
2022/02/20 00:44:38;;;;;;;1.70;1.42;;;;;;;;;;5024174;28;20037;-95
2022/02/20 00:47:04;;;;;;;4.50;2.42;;;;;;;;;;5032176;28;20022;-94
2022/02/20 00:49:30;;;;;;;2.70;1.92;;;;;;;;;;5032861;28;20029;-94
2022/02/20 00:51:56;;;;;;;4.10;2.63;;;;;;;;;;5033425;28;20041;-94
2022/02/20 00:54:22;;;;;;;4.57;2.55;;;;;;;;;;5034794;28;20025;-95
2022/02/20 00:56:48;;;;;;;7.15;2.17;;;;;;;;;;5032135;28;20033;-94
2022/02/20 00:59:14;;;;;;;5.68;2.25;;;;;;;;;;5030919;28;20068;-95
2022/02/20 01:01:41;;;;;;;2.60;1.77;;;;;;;;;;5034348;28;20048;-94
2022/02/20 01:04:08;;;;;;;2.65;1.65;;;;;;;;;;5034193;28;20113;-94
2022/02/20 01:06:34;;;;;;;3.43;2.43;;;;;;;;;;5022478;28;20486;-94
2022/02/20 01:09:00;;;;;;;10.93;3.15;;;;;;;;;;5023820;28;20311;-95
2022/02/20 01:11:26;;;;;;;5.95;2.53;;;;;;;;;;5033726;28;20106;-94
2022/02/20 01:13:52;;;;;;;3.28;2.00;;;;;;;;;;5035015;28;20066;-95
2022/02/20 01:16:19;;;;;;;7.03;2.35;;;;;;;;;;5029998;28;20419;-93
2022/02/20 01:18:46;;;;;;;3.78;2.38;;;;;;;;;;5030102;28;20040;-93
2022/02/20 01:21:12;;;;;;;6.07;2.00;;;;;;;;;;5024883;28;20034;-94
2022/02/20 01:23:38;;;;;;;10.70;3.38;;;;;;;;;;5034785;28;20029;-94
2022/02/20 01:26:04;;;;;;;4.40;1.83;;;;;;;;;;5030974;28;20080;-93
2022/02/20 01:28:30;;;;;;;4.90;2.72;;;;;;;;;;5035353;28;20022;-93
2022/02/20 01:30:56;;;;;;;4.22;1.92;;;;;;;;;;5033076;28;20029;-94
2022/02/20 01:33:22;;;;;;;3.45;2.55;;;;;;;;;;5023031;28;20590;-93
2022/02/20 01:35:48;;;;;;;11.63;3.95;;;;;;;;;;5030118;28;20533;-95
2022/02/20 01:38:15;;;;;;;5.40;1.95;;;;;;;;;;5033307;28;20022;-95
2022/02/20 01:40:42;;;;;;;4.00;2.08;;;;;;;;;;5034197;28;20112;-95
2022/02/20 01:43:10;;;;;;;9.93;2.30;;;;;;;;;;5032494;28;20025;-94
2022/02/20 01:45:38;;;;;;;4.45;1.95;;;;;;;;;;5033316;28;20064;-94
2022/02/20 01:48:04;;;;;;;5.32;2.55;;;;;;;;;;5034727;28;20026;-94
2022/02/20 01:50:30;;;;;;;6.53;3.38;;;;;;;;;;5032741;28;20506;-94
2022/02/20 01:52:56;;;;;;;9.30;3.55;;;;;;;;;;5034679;28;20100;-93
2022/02/20 01:55:22;;;;;;;9.77;2.42;;;;;;;;;;5033143;28;20053;-94
2022/02/20 01:57:48;;;;;;;5.03;3.15;;;;;;;;;;5034427;28;20018;-94
2022/02/20 02:00:16;;;;;;;9.30;3.13;;;;;;;;;;5033171;28;20029;-94
2022/02/20 02:02:42;;;;;;;;;;;6.10;70.50;;;;;;5028798;28;20410;-94
2022/02/20 02:05:08;;;;;;;4.63;1.98;;;;;;;;;;5016251;28;19905;-92
2022/02/20 02:07:34;;;;;;;10.77;3.30;;;;;;;;;;5032823;28;20017;-92
2022/02/20 02:10:00;;;;;;;5.38;3.45;;;;;;;;;;5033687;28;20030;-94
2022/02/20 02:12:26;;;;;;;8.25;2.85;;;;;;;;;;5025576;28;20057;-93
2022/02/20 02:14:54;;;;;;;4.18;2.08;;;;;;;;;;5032869;28;20025;-93
2022/02/20 02:17:20;;;;;;;7.80;3.03;;;;;;;;;;5031511;28;20051;-94
2022/02/20 02:19:46;;;;;;;10.07;4.20;;;;;;;;;;5013914;28;20034;-92
2022/02/20 02:22:12;;;;;;;8.52;3.05;;;;;;;;;;5032681;28;20755;-94
2022/02/20 02:24:37;;;;;;;4.50;2.03;;;;;;;;;;5032541;28;20052;-92
2022/02/20 02:27:04;;;;;;;3.15;1.58;;;;;;;;;;5032516;28;20032;-94
2022/02/20 02:29:30;;;;;;;9.20;2.63;;;;;;;;;;5033406;28;20456;-93
2022/02/20 02:31:56;;;;;;;7.60;3.17;;;;;;;;;;5034008;28;20025;-95
2022/02/20 02:34:22;;;;;;;12.35;2.90;;;;;;;;;;5032108;28;20057;-95
2022/02/20 02:36:49;;;;;;;5.30;2.45;;;;;;;;;;5033502;28;20022;-93
2022/02/20 02:39:16;;;;;;;8.70;2.55;;;;;;;;;;5024735;28;20029;-94
2022/02/20 02:41:42;;;;;;;9.77;2.97;;;;;;;;;;5031870;28;20029;-95
2022/02/20 02:44:08;;;;;;;8.80;4.03;;;;;;;;;;5033026;28;20029;-93
2022/02/20 02:46:34;;;;;;;3.60;1.92;;;;;;;;;;5033383;28;20017;-94
2022/02/20 02:49:01;;;;;;;8.18;3.38;;;;;;;;;;5032834;28;20400;-93
2022/02/20 02:51:27;;;;;;;9.85;2.97;;;;;;;;;;5021252;28;20041;-95
2022/02/20 02:53:55;;;;;;;6.57;3.47;;;;;;;;;;5019684;28;20038;-93
2022/02/20 02:56:21;;;;;;;4.60;3.05;;;;;;;;;;5032002;28;20029;-96
2022/02/20 02:58:47;;;;;;;4.40;2.78;;;;;;;;;;5033314;28;20060;-93
2022/02/20 03:01:13;;;;;;;6.50;2.70;;;;;;;;;;5031793;28;20025;-93
2022/02/20 03:03:39;;;;;;;7.60;3.72;;;;;;;;;;5033040;28;20028;-94
2022/02/20 03:06:12;;;;;;;12.45;2.88;;;;;;;;;;5024533;28;20104;-93
2022/02/20 03:08:38;;;;;;;17.02;4.35;;;;;;;;;;5030921;28;20079;-94
2022/02/20 03:11:04;;;;;;;5.70;2.85;;;;;;;;;;5013236;28;20076;-94
2022/02/20 03:13:34;;;;;;;8.52;2.33;;;;;;;;;;5028097;28;20048;-93
2022/02/20 03:16:00;;;;;;;6.57;3.33;;;;;;;;;;5028181;28;20046;-94
2022/02/20 03:18:29;;;;;;;6.18;2.90;;;;;;;;;;5021496;28;20040;-95
2022/02/20 03:20:55;;;;;;;6.20;2.60;;;;;;;;;;5024882;28;20403;-94
2022/02/20 03:23:21;;;;;;;5.17;3.40;;;;;;;;;;5031775;28;20033;-94
2022/02/20 03:25:47;;;;;;;5.53;3.47;;;;;;;;;;5032045;28;20276;-95
2022/02/20 03:28:13;;;;;;;5.82;2.90;;;;;;;;;;5032415;28;20052;-94
2022/02/20 03:30:39;;;;;;;8.50;2.35;;;;;;;;;;5031117;28;20383;-94
2022/02/20 03:33:06;;;;;;;6.68;3.60;;;;;;;;;;5024273;28;20053;-94
2022/02/20 03:35:32;;;;;;;4.47;2.60;;;;;;;;;;5029721;28;20486;-93
2022/02/20 03:37:58;;;;;;;14.38;3.75;;;;;;;;;;5032673;28;20068;-95
2022/02/20 03:40:24;;;;;;;10.30;4.28;;;;;;;;;;5032815;28;20033;-95
2022/02/20 03:42:50;;;;;;;9.77;3.35;;;;;;;;;;5031049;28;20052;-94
2022/02/20 03:45:16;;;;;;;9.38;3.55;;;;;;;;;;5032185;28;20471;-95
2022/02/20 03:47:42;;;;;;;10.95;3.25;;;;;;;;;;5031049;28;20036;-95
2022/02/20 03:50:09;;;;;;;6.90;3.45;;;;;;;;;;5031668;28;20026;-94
2022/02/20 03:52:35;;;;;;;2.80;2.00;;;;;;;;;;5032906;28;20077;-95
2022/02/20 03:55:01;;;;;;;2.40;1.67;;;;;;;;;;5031170;28;20108;-95
2022/02/20 03:57:32;;;;;;;3.13;2.75;;;;;;;;;;5032122;28;20021;-95
2022/02/20 03:59:58;;;;;;;3.22;1.98;;;;;;;;;;5029831;28;20029;-94
2022/02/20 04:02:24;;;;;;;6.30;2.08;;;;;;;;;;5032035;28;20033;-94
2022/02/20 04:04:50;;;;;;;5.35;2.47;;;;;;;;;;5026785;28;20029;-94
2022/02/20 04:07:17;;;;;;;2.55;1.95;;;;;;;;;;5029457;28;20095;-94
2022/02/20 04:09:43;;;;;;;9.40;2.00;;;;;;;;;;5032200;28;20494;-95
2022/02/20 04:12:09;;;;;;;2.72;1.98;;;;;;;;;;5030937;28;20022;-94
2022/02/20 04:14:35;;;;;;;7.32;2.90;;;;;;;;;;5032329;28;20032;-95
2022/02/20 04:17:01;;;;;;;2.67;1.88;;;;;;;;;;5031857;28;20088;-96
2022/02/20 04:19:27;;;;;;;2.92;1.75;;;;;;;;;;5032669;28;20034;-95
2022/02/20 04:21:53;;;;;;;5.13;3.00;;;;;;;;;;5031029;28;20037;-96
2022/02/20 04:24:19;;;;;;;8.68;3.85;;;;;;;;;;5033202;28;20501;-95
2022/02/20 04:26:45;;;;;;;4.60;2.35;;;;;;;;;;5028073;28;20034;-94
2022/02/20 04:29:11;;;;;;;3.63;1.55;;;;;;;;;;5016785;28;20033;-93
2022/02/20 04:31:38;;;;;;;3.08;2.25;;;;;;;;;;5035609;28;20152;-95
2022/02/20 04:34:04;;;;;;;3.83;1.83;;;;;;;;;;5032258;28;20049;-95
2022/02/20 04:36:34;;;;;;;1.77;1.30;;;;;;;;;;5032787;28;20103;-95
2022/02/20 04:39:01;;;;;;;5.53;1.92;;;;;;;;;;5039441;28;20029;-96
2022/02/20 04:41:27;;;;;;;3.08;1.83;;;;;;;;;;5034037;28;20129;-95
2022/02/20 04:43:53;;;;;;;2.50;1.88;;;;;;;;;;5035929;28;20026;-94
2022/02/20 04:46:19;;;;;;;4.43;2.55;;;;;;;;;;5050321;28;20222;-95
2022/02/20 04:48:45;;;;;;;3.00;1.73;;;;;;;;;;5026082;28;20121;-96
2022/02/20 04:51:11;;;;;;;2.58;1.35;;;;;;;;;;5034649;28;20127;-95
2022/02/20 04:53:37;;;;;;;4.43;2.00;;;;;;;;;;5033920;28;20541;-96
2022/02/20 04:56:03;;;;;;;9.20;2.22;;;;;;;;;;5018665;28;20030;-94
2022/02/20 04:58:29;;;;;;;6.53;3.05;;;;;;;;;;5033373;28;20029;-94
2022/02/20 05:00:55;;;;;;;4.93;1.70;;;;;;;;;;5034448;28;20029;-96
2022/02/20 05:03:21;;;;;;;9.00;2.25;;;;;;;;;;5034861;28;20108;-96
2022/02/20 05:05:47;;;;;;;8.40;2.47;;;;;;;;;;5035265;28;20033;-96
2022/02/20 05:08:14;;;;;;;3.60;1.80;;;;;;;;;;5032376;28;20021;-96
2022/02/20 05:10:40;;;;;;;4.35;2.15;;;;;;;;;;5030499;28;20061;-95
2022/02/20 05:13:06;;;;;;;2.40;1.58;;;;;;;;;;5023615;28;20092;-94
2022/02/20 05:15:32;;;;;;;5.13;2.67;;;;;;;;;;5015329;28;20034;-94
2022/02/20 05:17:58;;;;;;;7.43;3.25;;;;;;;;;;5022895;28;20036;-95
2022/02/20 05:20:24;;;;;;;11.30;2.10;;;;;;;;;;5034836;28;20022;-95
2022/02/20 05:22:50;;;;;;;5.40;2.08;;;;;;;;;;5034565;28;20051;-95
2022/02/20 05:25:17;;;;;;;3.83;1.95;;;;;;;;;;5035031;28;20042;-95
2022/02/20 05:27:43;;;;;;;3.72;1.83;;;;;;;;;;5020615;28;20049;-95
2022/02/20 05:30:11;;;;;;;11.50;3.17;;;;;;;;;;5024115;28;20462;-94
2022/02/20 05:32:37;;;;;;;3.13;1.70;;;;;;;;;;5035247;28;20041;-96
2022/02/20 05:35:03;;;;;;;7.53;1.67;;;;;;;;;;5033681;28;20032;-96
2022/02/20 05:37:29;;;;;;;2.83;1.58;;;;;;;;;;5030822;28;20025;-95
2022/02/20 05:39:55;;;;;;;1.80;1.27;;;;;;;;;;5033058;28;20191;-94
2022/02/20 05:42:21;;;;;;;1.50;1.17;;;;;;;;;;5033169;28;20131;-95
2022/02/20 05:44:47;;;;;;;3.85;1.55;;;;;;;;;;5033507;28;20065;-95
2022/02/20 05:47:14;;;;;;;1.95;1.08;;;;;;;;;;5034304;28;20026;-95
2022/02/20 05:49:40;;;;;;;7.15;1.60;;;;;;;;;;5033972;28;20032;-95
2022/02/20 05:52:06;;;;;;;0.70;0.60;;;;;;;;;;5032993;28;20033;-96
2022/02/20 05:54:32;;;;;;;3.80;1.25;;;;;;;;;;5034093;28;20029;-94
2022/02/20 05:56:58;;;;;;;2.17;1.77;;;;;;;;;;5033524;28;20035;-94
2022/02/20 05:59:24;;;;;;;10.32;3.75;;;;;;;;;;5034136;28;20022;-96
2022/02/20 06:01:50;;;;;;;8.38;3.58;;;;;;;;;;5034355;28;20040;-96
2022/02/20 06:04:16;;;;;;;5.82;1.83;;;;;;;;;;5034400;28;20025;-96
2022/02/20 06:06:42;;;;;;;4.25;1.33;;;;;;;;;;5029919;28;20048;-95
2022/02/20 06:09:09;;;;;;;1.33;0.98;;;;;;;;;;5023363;28;20014;-94
2022/02/20 06:11:35;;;;;;;3.10;1.00;;;;;;;;;;5030065;28;20038;-95
2022/02/20 06:14:01;;;;;;;1.58;1.15;;;;;;;;;;5015705;28;20124;-96
2022/02/20 06:16:27;;;;;;;1.42;1.17;;;;;;;;;;5033141;28;20453;-95
2022/02/20 06:18:53;;;;;;;5.80;1.80;;;;;;;;;;5034061;28;20023;-94
2022/02/20 06:21:19;;;;;;;3.25;1.20;;;;;;;;;;5032472;28;20088;-95
2022/02/20 06:23:45;;;;;;;1.27;0.82;;;;;;;;;;5033050;28;20041;-93
2022/02/20 06:26:11;;;;;;;6.65;1.00;;;;;;;;;;5046023;28;20079;-94
2022/02/20 06:28:37;;;;;;;1.45;1.35;;;;;;;;;;5032327;28;20506;-95
2022/02/20 06:31:04;;;;;;;0.85;0.85;;;;;;;;;;5018505;28;20037;-95
2022/02/20 06:33:30;;;;;;;4.53;1.25;;;;;;;;;;5023873;28;20108;-95
2022/02/20 06:35:56;;;;;;;2.50;2.08;;;;;;;;;;5031715;28;20033;-95
2022/02/20 06:38:22;;;;;;;2.35;0.93;;;;;;;;;;5051175;23;20506;-94
2022/02/20 06:40:48;;;;;;;2.17;1.02;;;;;;;;;;5008607;28;20072;-94
2022/02/20 06:43:14;;;;;;;1.10;0.95;;;;;;;;;;5008821;28;20026;-93
2022/02/20 06:45:40;;;;;;;2.80;0.68;;;;;;;;;;5006580;28;20023;-94
2022/02/20 06:48:06;;;;;;;6.28;1.10;;;;;;;;;;5001550;28;20030;-93
2022/02/20 06:50:32;;;;;;;1.00;0.82;;;;;;;;;;5012199;28;20034;-94
2022/02/20 06:52:59;;;;;;;2.30;1.08;;;;;;;;;;5013554;28;20057;-95
2022/02/20 06:55:25;;;;;;;1.17;0.80;;;;;;;;;;5012857;28;20068;-93
2022/02/20 06:57:54;;;;;;;2.47;1.92;;;;;;;;;;5012197;28;20025;-95
2022/02/20 07:00:20;;;;;;;1.10;0.85;;;;;;;;;;5012251;28;20490;-94
2022/02/20 07:02:46;;;;;;;2.95;0.75;;;;;;;;;;5001585;28;20029;-94
2022/02/20 07:05:12;;;;;;;2.33;1.13;;;;;;;;;;5012952;28;20048;-95
2022/02/20 07:07:38;;;;;;;1.70;0.82;;;;;;;;;;5011978;28;20463;-94
2022/02/20 07:10:07;;;;;;;6.07;0.77;;;;;;;;;;5013219;28;20069;-96
2022/02/20 07:12:33;;;;;;;3.33;1.15;;;;;;;;;;5011314;28;20038;-95
2022/02/20 07:14:59;;;;;;;2.90;1.60;;;;;;;;;;5012956;28;20014;-94
2022/02/20 07:17:25;;;;;;;1.70;1.58;;;;;;;;;;5002414;28;20034;-94
2022/02/20 07:19:51;;;;;;;2.17;1.00;;;;;;;;;;4992446;28;20033;-94
2022/02/20 07:22:17;;;;;;;5.13;2.63;;;;;;;;;;5008924;28;20100;-94
2022/02/20 07:24:43;;;;;;;3.75;2.05;;;;;;;;;;5008691;28;20487;-95
2022/02/20 07:27:09;;;;;;;4.57;1.98;;;;;;;;;;5002597;28;20045;-93
2022/02/20 07:29:35;;;;;;;3.53;1.92;;;;;;;;;;5013637;28;20022;-93
2022/02/20 07:32:01;;;;;;;3.28;2.30;;;;;;;;;;5012080;28;20112;-94
2022/02/20 07:34:27;;;;;;;1.52;1.00;;;;;;;;;;5012904;28;20030;-95
2022/02/20 07:36:54;;;;;;;2.28;1.15;;;;;;;;;;5012863;28;20425;-94
2022/02/20 07:39:20;;;;;;;1.60;0.93;;;;;;;;;;5009858;28;20058;-95
2022/02/20 07:41:46;;;;;;;4.03;0.83;;;;;;;;;;4998531;28;20433;-94
2022/02/20 07:44:12;;;;;;;1.75;0.80;;;;;;;;;;5011328;28;20037;-95
2022/02/20 07:46:38;;;;;;;0.80;0.80;;;;;;;;;;5008364;28;20023;-94
2022/02/20 07:49:05;;;;;;;1.38;0.93;;;;;;;;;;5011219;28;20032;-95
2022/02/20 07:51:31;;;;;;;2.92;1.33;;;;;;;;;;5011720;28;20121;-95
2022/02/20 07:53:57;;;;;;;5.40;1.33;;;;;;;;;;5011751;28;20045;-95
2022/02/20 07:56:23;;;;;;;4.05;3.03;;;;;;;;;;5012483;28;20029;-95
2022/02/20 07:58:49;;;;;;;2.60;1.73;;;;;;;;;;5006229;28;20104;-94
2022/02/20 08:01:15;;;;;;;4.97;1.67;;;;;;;;;;5015856;28;20034;-93
2022/02/20 08:03:42;;;;;;;11.80;3.40;;;;;;;;;;5016305;28;20037;-95
2022/02/20 08:06:09;;;;;;;2.20;1.92;;;;;;;;;;5011536;28;20494;-94
2022/02/20 08:08:35;;;;;;;1.30;0.80;;;;;;;;;;5019069;28;20023;-96
2022/02/20 08:11:02;;;;;;;3.15;1.55;;;;;;;;;;5010153;28;20037;-95
2022/02/20 08:13:28;;;;;;;3.17;1.65;;;;;;;;;;5018205;28;20030;-95
2022/02/20 08:15:54;;;;;;;1.30;1.08;;;;;;;;;;5011964;28;20522;-94
2022/02/20 08:18:21;;;;;;;2.38;1.13;;;;;;;;;;5016004;28;20110;-95
2022/02/20 08:20:47;;;;;;;2.63;0.73;;;;;;;;;;5023063;28;20060;-95
2022/02/20 08:23:14;;;;;;;0.70;0.63;;;;;;;;;;5034284;28;20471;-95
2022/02/20 08:25:41;;;;;;;6.60;0.85;;;;;;;;;;5016282;28;20029;-94
2022/02/20 08:28:07;;;;;;;5.15;1.10;;;;;;;;;;5016181;28;20482;-94
2022/02/20 08:30:33;;;;;;;0.60;0.50;;;;;;;;;;5016239;28;20065;-95
2022/02/20 08:32:59;;;;;;;1.33;0.85;;;;;;;;;;5015847;28;20510;-94
2022/02/20 08:35:25;;;;;;;1.30;0.60;;;;;;;;;;5014853;28;20030;-94
2022/02/20 08:37:51;;;;;;;6.90;2.03;;;;;;;;;;5016097;28;20058;-95
2022/02/20 08:40:18;;;;;;;11.60;1.00;;;;;;;;;;5016268;28;20025;-94
2022/02/20 08:42:45;;;;;;;0.82;0.82;;;;;;;;;;5008942;28;20034;-95
2022/02/20 08:45:12;;;;;;;0.80;0.80;;;;;;;;;;5007047;28;20034;-96
2022/02/20 08:47:38;;;;;;;1.87;0.67;;;;;;;;;;5014384;28;20371;-96
2022/02/20 08:50:12;;;;;;;3.28;1.25;;;;;;;;;;5014311;28;20030;-95
2022/02/20 08:52:41;;;;;;;5.75;1.58;;;;;;;;;;5025511;28;20025;-96
2022/02/20 08:55:08;;;;;;;3.40;0.60;;;;;;;;;;5014066;28;20034;-95
2022/02/20 08:57:34;;;;;;;0.70;0.55;;;;;;;;;;5015443;28;20034;-95
2022/02/20 09:00:01;;;;;;;0.88;0.80;;;;;;;;;;5009842;28;20030;-95
2022/02/20 09:02:27;;;;;;;3.92;0.70;;;;;;;;;;4997921;28;20026;-96
2022/02/20 09:04:53;;;;;;;3.17;0.90;;;;;;;;;;4999705;28;20029;-95
2022/02/20 09:07:20;;;;;;;2.50;0.50;;;;;;;;;;5014257;28;20038;-94
2022/02/20 09:09:46;;;;;;;1.02;0.93;;;;;;;;;;5006283;28;20866;-94
2022/02/20 09:12:12;;;;;;;1.55;0.70;;;;;;;;;;5014203;28;20030;-94
2022/02/20 09:14:39;;;;;;;0.93;0.73;;;;;;;;;;5013966;28;20094;-93
2022/02/20 09:17:05;;;;;;;2.92;0.98;;;;;;;;;;4999430;28;20117;-95
2022/02/20 09:19:31;;;;;;;6.07;2.20;;;;;;;;;;5015471;28;20045;-95
2022/02/20 09:21:57;;;;;;;5.43;1.42;;;;;;;;;;5015416;28;20030;-95
2022/02/20 09:24:23;;;;;;;1.48;1.10;;;;;;;;;;5015020;28;20029;-95
2022/02/20 09:26:53;;;;;;;2.33;1.08;;;;;;;;;;5012541;28;20029;-94
2022/02/20 09:29:19;;;;;;;4.18;1.05;;;;;;;;;;5015157;28;20050;-95
2022/02/20 09:31:45;;;;;;;5.47;1.25;;;;;;;;;;5015265;28;20500;-95
2022/02/20 09:34:11;;;;;;;3.03;0.80;;;;;;;;;;5015144;28;20391;-94
2022/02/20 09:36:37;;;;;;;0.90;0.60;;;;;;;;;;5013814;28;20509;-94
2022/02/20 09:39:05;;;;;;;2.35;1.17;;;;;;;;;;5013970;28;20050;-95
2022/02/20 09:41:31;;;;;;;1.92;0.93;;;;;;;;;;4995828;28;20022;-95
2022/02/20 09:43:58;;;;;;;1.80;0.80;;;;;;;;;;4995473;28;20050;-95
2022/02/20 09:46:25;;;;;;;2.42;0.73;;;;;;;;;;5015406;28;20482;-95
2022/02/20 09:48:51;;;;;;;1.88;0.50;;;;;;;;;;5000237;28;20034;-96
2022/02/20 09:51:18;;;;;;;0.95;0.95;;;;;;;;;;5019521;28;20042;-94
2022/02/20 09:53:44;;;;;;;0.70;0.65;;;;;;;;;;5014780;28;20026;-95
2022/02/20 09:56:10;;;;;;;23.55;1.45;;;;;;;;;;5013521;28;20053;-95
2022/02/20 09:58:36;;;;;;;3.22;0.85;;;;;;;;;;5013163;28;20030;-94
2022/02/20 10:01:12;;;;;;;0.43;0.40;;;;;;;;;;5008850;28;20048;-95
2022/02/20 10:03:43;;;;;;;0.40;0.40;;;;;;;;;;5012460;28;20387;-96
2022/02/20 10:06:11;;;;;;;1.25;0.60;;;;;;;;;;5013223;28;20038;-95
2022/02/20 10:08:41;;;;;;;0.30;0.30;;;;;;;;;;5014931;28;20079;-95
2022/02/20 10:11:17;;;;;;;0.93;0.90;;;;;;;;;;5014470;28;20042;-96
2022/02/20 10:13:43;;;;;;;1.08;0.68;;;;;;;;;;5013599;28;20018;-95
2022/02/20 10:16:29;;;;;;;0.70;0.60;;;;;;;;;;5013309;28;20079;-95
2022/02/20 10:18:57;;;;;;;3.57;0.80;;;;;;;;;;5003018;28;20073;-95
2022/02/20 10:21:24;;;;;;;1.05;0.80;;;;;;;;;;5009754;28;20518;-96
2022/02/20 10:23:52;;;;;;;0.68;0.50;;;;;;;;;;5003320;28;20044;-96
2022/02/20 10:26:22;;;;;;;0.55;0.55;;;;;;;;;;5014838;28;20108;-96
2022/02/20 10:29:02;;;;;;;1.85;1.15;;;;;;;;;;5015052;28;20030;-95
2022/02/20 10:31:47;;;;;;;1.58;1.25;;;;;;;;;;5008388;28;20046;-95
2022/02/20 10:34:16;;;;;;;0.75;0.50;;;;;;;;;;5013074;28;20029;-95
2022/02/20 10:36:45;;;;;;;0.40;0.40;;;;;;;;;;5014400;28;20109;-96
2022/02/20 10:39:19;;;;;;;1.80;0.50;;;;;;;;;;5009596;28;20140;-96
2022/02/20 10:41:45;;;;;;;0.40;0.40;;;;;;;;;;4995162;28;20019;-96
2022/02/20 10:44:11;;;;;;;0.65;0.60;;;;;;;;;;4996019;28;20895;-96
2022/02/20 10:46:37;;;;;;;3.00;1.55;;;;;;;;;;5009661;28;20113;-95
2022/02/20 10:49:03;;;;;;;2.83;1.08;;;;;;;;;;5024586;28;20053;-95
2022/02/20 10:51:39;;;;;;;1.75;1.48;;;;;;;;;;5014635;28;20498;-96
2022/02/20 10:54:05;;;;;;;2.45;1.33;;;;;;;;;;5006270;28;20038;-95
2022/02/20 10:56:39;;;;;;;0.55;0.52;;;;;;;;;;5002362;28;20031;-96
2022/02/20 10:59:06;;;;;;;0.55;0.40;;;;;;;;;;5010660;28;20081;-94
2022/02/20 11:01:32;;;;;;;1.05;0.50;;;;;;;;;;5002262;28;20108;-95
2022/02/20 11:04:04;;;;;;;0.52;0.50;;;;;;;;;;4996841;28;20026;-96
2022/02/20 11:06:31;;;;;;;9.30;1.35;;;;;;;;;;5002645;28;20491;-95
2022/02/20 11:08:57;;;;;;;0.50;0.50;;;;;;;;;;5001342;28;20018;-94
2022/02/20 11:11:42;;;;;;;7.03;2.08;;;;;;;;;;5013095;28;20056;-95
2022/02/20 11:14:15;;;;;;;0.38;0.38;;;;;;;;;;5013550;28;20492;-95
2022/02/20 11:16:45;;;;;;;2.03;0.90;;;;;;;;;;5014464;28;20037;-96
2022/02/20 11:19:12;;;;;;;1.67;1.50;;;;;;;;;;5012607;28;20106;-95
2022/02/20 11:21:38;;;;;;;;;;;;;;;;;;5009298;28;20096;-96
2022/02/20 11:24:05;;;;;;;2.90;1.42;;;;;;;;;;5013407;28;20368;-95
2022/02/20 11:26:33;;;;;;;3.47;0.90;;;;;;;;;;5012770;28;20029;-93
2022/02/20 11:28:59;;;;;;;0.55;0.30;;;;;;;;;;5012460;28;20117;-95
2022/02/20 11:31:26;;;;;;;0.75;0.60;;;;;;;;;;4996244;28;20479;-96
2022/02/20 11:33:55;;;;;;;0.40;0.40;;;;;;;;;;5017551;28;20029;-95
2022/02/20 11:36:21;;;;;;;1.83;1.23;;;;;;;;;;5018217;28;20030;-95
2022/02/20 11:39:05;;;;;;;27.42;7.80;;;13.10;66.20;;;;;;5013574;28;20046;-95
2022/02/20 11:41:32;;;;;;;4.20;1.83;;;;;;;;;;5009093;28;20026;-96
2022/02/20 11:44:10;;;;;;;3.55;0.60;;;;;;;;;;5013703;28;20467;-96
2022/02/20 11:46:48;;;;;;;10.55;2.75;;;;;;;;;;5013641;28;20529;-94
2022/02/20 11:49:19;;;;;;;33.47;6.95;;;;;;;;;;5017181;28;20470;-95
2022/02/20 11:52:01;;;;;;;0.50;0.50;;;;;;;;;;5017350;28;20069;-94
2022/02/20 11:54:28;;;;;;;0.73;0.60;;;;;;;;;;5017689;28;20030;-95
2022/02/20 11:57:12;;;;;;;0.70;0.70;;;13.60;64.60;;;;;;5011514;28;20026;-95
2022/02/20 11:59:41;;;;;;;0.30;0.30;;;;;;;;;;5016967;28;20042;-94
2022/02/20 12:02:14;;;;;;;0.40;0.40;;;;;;;;;;5016898;28;20037;-96
2022/02/20 12:04:55;;;;;;;2.75;1.38;;;;;;;;;;5017187;28;20030;-95
2022/02/20 12:07:31;;;;;;;1.25;1.02;;;;;;;;;;5017318;28;20030;-94
2022/02/20 12:10:16;;;;;;;0.75;0.70;;;;;;;;;;5018433;28;20038;-95
2022/02/20 12:12:45;;;;;;;0.95;0.73;;;;;;;;;;5004676;28;20027;-94
2022/02/20 12:15:32;;;;;;;1.13;1.02;;;;;;;;;;5006675;28;20078;-96
2022/02/20 12:18:02;;;;;;;2.92;0.60;;;;;;;;;;5008208;28;20029;-95
2022/02/20 12:20:49;;;;;;;0.80;0.80;;;15.20;61.80;;;;;;5016454;28;20487;-96
2022/02/20 12:23:35;;;;;;;1.08;0.68;;;;;;;;;;5014698;28;20100;-96
2022/02/20 12:26:05;;;;;;;0.73;0.47;;;;;;;;;;5013069;28;20092;-95
2022/02/20 12:28:31;;;;;;;2.13;0.45;;;;;;;;;;5006337;28;20089;-96
2022/02/20 12:30:58;;;;;;;5.18;1.10;;;;;;;;;;5010234;28;20513;-96
2022/02/20 12:33:30;;;;;;;1.83;1.73;;;;;;;;;;5010239;28;20046;-94
2022/02/20 12:35:59;;;;;;;0.73;0.68;;;;;;;;;;5018072;28;20032;-96
2022/02/20 12:38:25;;;;;;;0.40;0.40;;;;;;;;;;5017072;28;20038;-95
2022/02/20 12:40:52;;;;;;;0.30;0.30;;;;;;;;;;5015778;28;20109;-95
2022/02/20 12:43:18;;;;;;;1.80;1.10;;;;;;;;;;5013039;28;20129;-95
2022/02/20 12:45:45;;;;;;;3.53;1.40;;;;;;;;;;5015506;28;20029;-94
2022/02/20 12:48:14;;;;;;;2.22;1.70;;;;;;;;;;5017388;28;20104;-96
2022/02/20 12:50:44;;;;;;;0.60;0.55;;;;;;;;;;5016260;28;20677;-96
2022/02/20 12:53:12;;;;;;;0.32;0.32;;;;;;;;;;5016454;28;20018;-95
2022/02/20 12:55:40;;;;;;;0.30;0.30;;;;;;;;;;5017562;28;20036;-96
2022/02/20 12:58:07;;;;;;;0.65;0.55;;;;;;;;;;5017573;28;20044;-95
2022/02/20 13:00:41;;;;;;;0.98;0.90;;;;;;;;;;5015914;28;20094;-95
2022/02/20 13:03:11;;;;;;;0.20;0.20;;;;;;;;;;5016231;28;20058;-95
2022/02/20 13:05:38;;;;;;;0.57;0.40;;;;;;;;;;5013461;28;20053;-95
2022/02/20 13:08:08;;;;;;;2.80;0.40;;;;;;;;;;5002420;28;20432;-95
2022/02/20 13:10:35;;;;;;;0.90;0.60;;;;;;;;;;5016381;28;20562;-95
2022/02/20 13:13:07;;;;;;;0.47;0.32;;;;;;;;;;5016997;28;20045;-95
2022/02/20 13:15:43;;;;;;;0.90;0.60;;;;;;;;;;5018128;28;20069;-95
2022/02/20 13:18:12;;;;;;;1.52;0.43;;;;;;;;;;5018297;28;20029;-94
2022/02/20 13:20:40;;;;;;;0.20;0.20;;;;;;;;;;5013022;28;20022;-94
2022/02/20 13:23:13;;;;;;;0.20;0.20;;;;;;;;;;5016749;28;20033;-95
2022/02/20 13:25:39;;;;;;;0.40;0.30;;;;;;;;;;5016684;28;20378;-94
2022/02/20 13:28:05;;;;;;;0.30;0.30;;;;;;;;;;5015825;28;20034;-94
2022/02/20 13:30:34;;;;;;;0.52;0.43;;;;;;;;;;5015236;28;20033;-95
2022/02/20 13:33:09;;;;;;;0.30;0.30;;;;;;;;;;5011309;28;20054;-96
2022/02/20 13:35:35;;;;;;;0.40;0.38;;;;;;;;;;5001764;28;20029;-94
2022/02/20 13:38:05;;;;;;;0.22;0.22;;;;;;;;;;5016083;28;20053;-94
2022/02/20 13:40:37;;;;;;;0.30;0.30;;;;;;;;;;5011941;28;20022;-96
2022/02/20 13:43:05;;;;;;;0.43;0.43;;;;;;;;;;5015765;28;20452;-94
2022/02/20 13:45:31;;;;;;;0.52;0.30;;;;;;;;;;5016299;28;20056;-96
2022/02/20 13:47:57;;;;;;;0.63;0.63;;;;;;;;;;5023241;28;20021;-94
2022/02/20 13:50:24;;;;;;;2.22;0.30;;;;;;;;;;5031545;28;20045;-95
2022/02/20 13:52:50;;;;;;;0.70;0.30;;;;;;;;;;5015635;28;20018;-96
2022/02/20 13:55:25;;;;;;;0.28;0.28;;;;;;;;;;5015451;28;20034;-95
2022/02/20 13:57:53;;;;;;;2.08;0.40;;;;;;;;;;5015262;28;20128;-94
2022/02/20 14:00:19;;;;;;;0.30;0.30;;;;;;;;;;5013931;28;20018;-96
2022/02/20 14:02:45;;;;;;;0.60;0.50;;;;;;;;;;5014671;28;20032;-95
2022/02/20 14:05:25;;;;;;;0.22;0.22;;;;;;;;;;5014840;28;20402;-96
2022/02/20 14:08:01;;;;;;;0.20;0.20;;;;;;;;;;5014027;28;20037;-94
2022/02/20 14:10:27;;;;;;;0.28;0.28;;;;;;;;;;5010808;28;20038;-94
2022/02/20 14:12:53;;;;;;;0.30;0.30;;;;;;;;;;5014640;28;20084;-96
2022/02/20 14:15:29;;;;;;;0.30;0.30;;;;;;;;;;5010666;28;20014;-95
2022/02/20 14:18:02;;;;;;;0.30;0.30;;;;;;;;;;5002587;28;20522;-94
2022/02/20 14:20:48;;;;;;;0.30;0.30;;;;;;;;;;5015290;28;20064;-95
2022/02/20 14:23:18;;;;;;;0.30;0.30;;;;;;;;;;4997486;28;20026;-96
2022/02/20 14:25:48;;;;;;;0.30;0.30;;;;;;;;;;4995766;28;20019;-95
2022/02/20 14:28:18;;;;;;;0.55;0.50;;;;;;;;;;5012831;28;20057;-96
2022/02/20 14:30:45;;;;;;;0.60;0.50;;;;;;;;;;5014280;28;20529;-95
2022/02/20 14:33:12;;;;;;;0.20;0.20;;;;;;;;;;5014940;28;20022;-96
2022/02/20 14:35:39;;;;;;;0.82;0.70;;;;;;;;;;5017326;28;20068;-95
2022/02/20 14:38:06;;;;;;;0.52;0.35;;;;;;;;;;5013902;28;20054;-95
2022/02/20 14:40:33;;;;;;;0.50;0.50;;;;;;;;;;5015217;28;20029;-96
2022/02/20 14:42:59;;;;;;;0.30;0.30;;;;;;;;;;5011180;28;20026;-96